createdAt,value
2022-08-20T00:03:02.517Z,97406.63
2022-08-20T00:06:09.442Z,97410.13
2022-08-20T00:09:14.300Z,97415.22
2022-08-20T00:12:18.229Z,97422.75
2022-08-20T00:15:25.602Z,97422.31
2022-08-20T00:18:28.615Z,97439.34
2022-08-20T00:21:31.578Z,97442.69
2022-08-20T00:24:36.031Z,97448.44
2022-08-20T00:27:38.874Z,97446.88
2022-08-20T00:30:44.493Z,97448.09
2022-08-20T00:33:48.380Z,97447.59
2022-08-20T00:36:51.159Z,97445.84
2022-08-20T00:39:56.382Z,97450.72
2022-08-20T00:43:02.224Z,97448.41
2022-08-20T00:46:08.699Z,97450.84
2022-08-20T00:49:17.485Z,97452.19
2022-08-20T00:52:22.113Z,97448.97
2022-08-20T00:55:31.432Z,97454.94
2022-08-20T00:58:37.260Z,97468.69
2022-08-20T01:01:55.876Z,97469.16
2022-08-20T01:04:59.730Z,97478.09
2022-08-20T01:08:02.660Z,97488.34
2022-08-20T01:11:10.171Z,97488.81
2022-08-20T01:14:36.574Z,97494.28
2022-08-20T01:18:15.825Z,97492.06
2022-08-20T01:22:02.996Z,97509.13
2022-08-20T01:25:49.087Z,97506.72
2022-08-20T01:33:36.245Z,97505.22
2022-08-20T01:37:55.861Z,97509.09
2022-08-20T01:41:59.816Z,97502.25
2022-08-20T01:45:08.824Z,97513.94
2022-08-20T01:48:12.381Z,97507.16
2022-08-20T01:51:20.193Z,97510.41
2022-08-20T01:54:23.652Z,97510.41
2022-08-20T01:57:27.776Z,97518.97
2022-08-20T02:00:32.600Z,97514.09
2022-08-20T02:03:39.774Z,97519.56
2022-08-20T02:06:56.139Z,97522.69
2022-08-20T02:10:00.869Z,97514.97
2022-08-20T02:13:05.325Z,97514.97
2022-08-20T02:16:20.225Z,97507.56
2022-08-20T02:19:26.756Z,97511.88
2022-08-20T02:22:37.374Z,97505.09
2022-08-20T02:25:43.468Z,97512.47
2022-08-20T02:28:49.774Z,97521.91
2022-08-20T02:32:24.928Z,97529.91
2022-08-20T02:35:18.749Z,97522.31
2022-08-20T02:38:23.180Z,97525.78
2022-08-20T02:41:26.666Z,97521.84
2022-08-20T02:44:29.507Z,97521.91
2022-08-20T02:47:32.387Z,97511.72
2022-08-20T02:50:35.434Z,97515.47
2022-08-20T02:53:42.226Z,97525.28
2022-08-20T02:56:45.551Z,97519.97
2022-08-20T02:59:48.415Z,97514.19
2022-08-20T03:02:51.382Z,97516.66
2022-08-20T03:05:56.869Z,97518.34
2022-08-20T03:09:01.124Z,97508.84
2022-08-20T03:12:04.374Z,97506.81
2022-08-20T03:15:08.918Z,97500.53
2022-08-20T03:18:21.336Z,97504.34
2022-08-20T03:21:24.267Z,97497.19
2022-08-20T03:24:28.573Z,97490.03
2022-08-20T03:27:36.311Z,97497.50
2022-08-20T03:30:41.137Z,97494.69
2022-08-20T03:33:52.855Z,97502.38
2022-08-20T03:36:56.794Z,97503.22
2022-08-20T03:40:02.056Z,97504.47
2022-08-20T03:43:05.260Z,97509.44
2022-08-20T03:46:23.662Z,97508.00
2022-08-20T03:49:28.773Z,97506.97
2022-08-20T03:52:31.577Z,97506.38
2022-08-20T03:55:36.591Z,97501.31
2022-08-20T03:58:39.447Z,97503.75
2022-08-20T04:01:44.763Z,97505.59
2022-08-20T04:04:49.251Z,97499.47
2022-08-20T04:07:52.163Z,97500.28
2022-08-20T04:10:59.780Z,97498.44
2022-08-20T04:14:02.610Z,97502.31
2022-08-20T04:17:08.668Z,97502.13
2022-08-20T04:20:14.697Z,97494.00
2022-08-20T04:23:17.744Z,97489.13
2022-08-20T04:26:22.420Z,97489.50
2022-08-20T04:29:25.964Z,97486.25
2022-08-20T04:32:37.220Z,97491.13
2022-08-20T04:35:41.269Z,97494.78
2022-08-20T04:38:48.077Z,97491.09
2022-08-20T04:41:54.918Z,97489.28
2022-08-20T04:44:57.737Z,97494.66
2022-08-20T04:48:05.577Z,97497.47
2022-08-20T04:51:09.773Z,97503.06
2022-08-20T04:54:14.324Z,97495.66
2022-08-20T04:57:19.078Z,97509.13
2022-08-20T05:00:22.144Z,97512.59
2022-08-20T05:03:25.719Z,97507.94
2022-08-20T05:06:31.098Z,97512.44
2022-08-20T05:09:35.094Z,97512.00
2022-08-20T05:12:56.880Z,97520.78
2022-08-20T05:16:02.033Z,97532.84
2022-08-20T05:19:04.979Z,97534.50
2022-08-20T05:22:07.897Z,97538.78
2022-08-20T05:25:11.226Z,97545.09
2022-08-20T05:28:20.523Z,97546.28
2022-08-20T05:31:31.977Z,97545.84
2022-08-20T05:34:36.035Z,97540.72
2022-08-20T05:37:41.242Z,97537.66
2022-08-20T05:40:44.679Z,97531.97
2022-08-20T05:43:48.868Z,97532.16
2022-08-20T05:46:54.565Z,97541.34
2022-08-20T05:49:57.452Z,97547.47
2022-08-20T05:53:01.504Z,97540.91
2022-08-20T05:56:04.884Z,97547.84
2022-08-20T05:59:10.552Z,97550.56
2022-08-20T06:02:27.388Z,97559.72
2022-08-20T06:05:30.539Z,97564.59
2022-08-20T06:08:33.739Z,97561.69
2022-08-20T06:11:46.547Z,97555.41
2022-08-20T06:14:50.725Z,97554.00
2022-08-20T06:17:58.051Z,97560.75
2022-08-20T06:21:01.377Z,97555.59
2022-08-20T06:24:04.886Z,97565.84
2022-08-20T06:27:08.119Z,97565.03
2022-08-20T06:30:14.550Z,97571.34
2022-08-20T06:33:17.363Z,97573.38
2022-08-20T06:36:20.316Z,97579.31
2022-08-20T06:39:23.294Z,97586.84
2022-08-20T06:42:26.214Z,97583.19
2022-08-20T06:45:32.713Z,97590.28
2022-08-20T06:48:35.592Z,97593.78
2022-08-20T06:51:38.518Z,97599.31
2022-08-20T06:54:44.290Z,97595.44
2022-08-20T06:57:48.430Z,97592.97
2022-08-20T07:00:52.919Z,97594.19
2022-08-20T07:03:58.877Z,97602.19
2022-08-20T07:07:01.764Z,97601.56
2022-08-20T07:10:07.075Z,97604.16
2022-08-20T07:13:10.275Z,97596.84
2022-08-20T07:16:14.482Z,97598.47
2022-08-20T07:19:17.799Z,97601.31
2022-08-20T07:22:20.668Z,97596.34
2022-08-20T07:25:23.992Z,97596.78
2022-08-20T07:28:29.670Z,97601.22
2022-08-20T07:31:51.276Z,97603.28
2022-08-20T07:34:54.073Z,97601.66
2022-08-20T07:37:56.987Z,97599.03
2022-08-20T07:41:01.919Z,97604.13
2022-08-20T07:44:05.098Z,97616.38
2022-08-20T07:47:09.375Z,97606.94
2022-08-20T07:50:14.443Z,97614.28
2022-08-20T07:53:17.714Z,97605.28
2022-08-20T07:56:24.235Z,97613.66
2022-08-20T07:59:27.395Z,97603.00
2022-08-20T08:02:31.914Z,97606.06
2022-08-20T08:05:38.267Z,97598.28
2022-08-20T08:08:42.161Z,97594.94
2022-08-20T08:11:50.264Z,97598.13
2022-08-20T08:14:55.831Z,97613.06
2022-08-20T08:18:07.905Z,97611.19
2022-08-20T08:21:12.965Z,97611.97
2022-08-20T08:24:21.658Z,97616.66
2022-08-20T08:27:26.380Z,97622.84
2022-08-20T08:30:29.377Z,97619.31
2022-08-20T08:33:33.880Z,97626.91
2022-08-20T08:36:36.720Z,97634.25
2022-08-20T08:39:39.627Z,97646.88
2022-08-20T08:42:47.232Z,97650.16
2022-08-20T08:45:57.589Z,97644.78
2022-08-20T08:49:02.886Z,97654.00
2022-08-20T08:52:11.672Z,97650.56
2022-08-20T08:55:20.500Z,97639.88
2022-08-20T08:58:23.966Z,97636.66
2022-08-20T09:01:53.997Z,97630.91
2022-08-20T09:04:51.932Z,97638.22
2022-08-20T09:07:55.177Z,97639.44
2022-08-20T09:11:02.670Z,97637.81
2022-08-20T09:14:05.771Z,97645.59
2022-08-20T09:17:09.192Z,97646.19
2022-08-20T09:20:13.868Z,97650.41
2022-08-20T09:23:16.734Z,97651.59
2022-08-20T09:26:19.867Z,97651.31
2022-08-20T09:29:25.118Z,97651.44
2022-08-20T09:32:29.799Z,97645.19
2022-08-20T09:35:36.323Z,97644.16
2022-08-20T09:38:39.262Z,97645.00
2022-08-20T09:41:45.130Z,97630.91
2022-08-20T09:44:49.274Z,97635.72
2022-08-20T09:47:55.403Z,97634.44
2022-08-20T09:51:01.616Z,97642.00
2022-08-20T09:54:04.824Z,97636.06
2022-08-20T09:57:10.866Z,97639.72
2022-08-20T10:00:15.559Z,97637.66
2022-08-20T10:03:20.888Z,97638.03
2022-08-20T10:06:25.830Z,97625.78
2022-08-20T10:09:28.638Z,97629.88
2022-08-20T10:12:32.387Z,97632.66
2022-08-20T10:15:36.424Z,97630.13
2022-08-20T10:18:40.232Z,97629.28
2022-08-20T10:21:44.578Z,97632.56
2022-08-20T10:24:47.789Z,97628.25
2022-08-20T10:27:50.900Z,97635.44
2022-08-20T10:30:53.968Z,97640.34
2022-08-20T10:33:56.893Z,97651.78
2022-08-20T10:37:01.083Z,97657.50
2022-08-20T10:40:05.117Z,97658.31
2022-08-20T10:43:08.310Z,97664.06
2022-08-20T10:46:11.484Z,97665.31
2022-08-20T10:49:14.581Z,97674.28
2022-08-20T10:52:19.343Z,97670.59
2022-08-20T10:55:22.419Z,97674.88
2022-08-20T10:58:25.781Z,97687.78
2022-08-20T11:01:31.172Z,97693.06
2022-08-20T11:04:37.614Z,97702.44
2022-08-20T11:07:50.678Z,97701.69
2022-08-20T11:10:59.839Z,97683.03
2022-08-20T11:14:02.970Z,97689.75
2022-08-20T11:17:07.215Z,97687.66
2022-08-20T11:20:12.098Z,97685.59
2022-08-20T11:23:16.365Z,97684.78
2022-08-20T11:26:23.482Z,97687.41
2022-08-20T11:29:29.081Z,97687.53
2022-08-20T11:32:34.576Z,97686.50
2022-08-20T11:35:48.519Z,97687.34
2022-08-20T11:38:53.832Z,97705.94
2022-08-20T11:41:56.895Z,97692.81
2022-08-20T11:44:59.682Z,97690.38
2022-08-20T11:48:02.540Z,97692.00
2022-08-20T11:51:05.732Z,97693.78
2022-08-20T11:54:10.305Z,97687.66
2022-08-20T11:57:14.955Z,97683.13
2022-08-20T12:00:20.242Z,97684.34
2022-08-20T12:03:35.418Z,97693.06
2022-08-20T12:06:38.366Z,97686.09
2022-08-20T12:09:50.767Z,97683.22
2022-08-20T12:12:54.109Z,97687.13
2022-08-20T12:15:58.217Z,97689.81
2022-08-20T12:19:01.171Z,97688.09
2022-08-20T12:22:23.137Z,97693.38
2022-08-20T12:25:28.619Z,97691.16
2022-08-20T12:28:32.327Z,97696.47
2022-08-20T12:31:35.180Z,97689.81
2022-08-20T12:34:40.128Z,97691.31
2022-08-20T12:37:44.059Z,97684.63
2022-08-20T12:40:48.358Z,97695.75
2022-08-20T12:43:51.462Z,97683.66
2022-08-20T12:47:05.855Z,97683.38
2022-08-20T12:50:11.351Z,97682.13
2022-08-20T12:53:14.656Z,97681.38
2022-08-20T12:56:19.075Z,97691.75
2022-08-20T12:59:26.119Z,97698.09
2022-08-20T13:02:29.494Z,97698.72
2022-08-20T13:05:34.246Z,97703.81
2022-08-20T13:08:37.314Z,97698.91
2022-08-20T13:11:42.382Z,97697.63
2022-08-20T13:14:46.166Z,97692.31
2022-08-20T13:17:53.124Z,97698.47
2022-08-20T13:20:56.157Z,97699.63
2022-08-20T13:23:58.947Z,97696.75
2022-08-20T13:27:08.696Z,97684.84
2022-08-20T13:30:14.774Z,97683.78
2022-08-20T13:33:17.631Z,97671.03
2022-08-20T13:36:20.670Z,97673.50
2022-08-20T13:39:24.754Z,97672.84
2022-08-20T13:42:29.237Z,97674.81
2022-08-20T13:45:32.118Z,97666.59
2022-08-20T13:48:34.996Z,97660.78
2022-08-20T13:51:38.014Z,97669.75
2022-08-20T13:54:41.718Z,97659.31
2022-08-20T13:57:47.547Z,97651.91
2022-08-20T14:00:51.419Z,97654.47
2022-08-20T14:03:54.466Z,97652.63
2022-08-20T14:06:57.498Z,97651.44
2022-08-20T14:10:03.394Z,97652.06
2022-08-20T14:13:11.154Z,97638.56
2022-08-20T14:16:25.316Z,97644.53
2022-08-20T14:19:31.044Z,97643.28
2022-08-20T14:22:36.406Z,97635.03
2022-08-20T14:25:39.627Z,97632.59
2022-08-20T14:28:43.904Z,97626.81
2022-08-20T14:31:46.929Z,97627.53
2022-08-20T14:34:49.929Z,97632.59
2022-08-20T14:37:55.554Z,97625.50
2022-08-20T14:40:58.401Z,97619.94
2022-08-20T14:44:04.412Z,97614.94
2022-08-20T14:47:16.827Z,97623.56
2022-08-20T14:50:21.557Z,97630.94
2022-08-20T14:53:24.368Z,97641.19
2022-08-20T14:56:27.298Z,97649.19
2022-08-20T14:59:31.943Z,97654.16
2022-08-20T15:02:34.788Z,97649.03
2022-08-20T15:05:39.255Z,97650.66
2022-08-20T15:08:42.755Z,97639.69
2022-08-20T15:11:46.061Z,97635.19
2022-08-20T15:14:50.984Z,97629.84
2022-08-20T15:17:55.971Z,97631.84
2022-08-20T15:20:58.860Z,97627.44
2022-08-20T15:24:01.693Z,97617.81
2022-08-20T15:27:12.724Z,97611.84
2022-08-20T15:30:19.838Z,97599.91
2022-08-20T15:33:22.817Z,97592.81
2022-08-20T15:36:25.871Z,97570.50
2022-08-20T15:39:29.143Z,97570.63
2022-08-20T15:42:31.949Z,97562.97
2022-08-20T15:45:36.950Z,97559.09
2022-08-20T15:48:41.887Z,97553.44
2022-08-20T15:51:48.231Z,97549.59
2022-08-20T15:54:52.469Z,97553.22
2022-08-20T15:58:06.443Z,97556.44
2022-08-20T16:01:25.088Z,97559.25
2022-08-20T16:04:58.469Z,97559.13
2022-08-20T16:08:13.119Z,97559.56
2022-08-20T16:11:25.158Z,97557.50
2022-08-20T16:14:31.338Z,97551.47
2022-08-20T16:17:42.010Z,97556.91
2022-08-20T16:20:48.037Z,97555.88
2022-08-20T16:23:51.002Z,97549.81
2022-08-20T16:27:10.165Z,97549.72
2022-08-20T16:30:22.020Z,97552.59
2022-08-20T16:33:31.310Z,97552.97
2022-08-20T16:36:38.174Z,97553.22
2022-08-20T16:39:49.913Z,97540.66
2022-08-20T16:42:54.918Z,97521.38
2022-08-20T16:46:03.510Z,97523.00
2022-08-20T16:49:13.525Z,97537.75
2022-08-20T16:52:16.628Z,97554.03
2022-08-20T16:55:20.523Z,97564.44
2022-08-20T16:58:23.426Z,97550.06
2022-08-20T17:01:27.644Z,97537.28
2022-08-20T17:04:31.960Z,97534.28
2022-08-20T17:07:46.288Z,97542.63
2022-08-20T17:10:59.223Z,97565.25
2022-08-20T17:14:13.086Z,97581.28
2022-08-20T17:17:23.505Z,97586.28
2022-08-20T17:20:29.238Z,97591.53
2022-08-20T17:23:54.805Z,97595.25
2022-08-20T17:27:02.531Z,97594.81
2022-08-20T17:30:11.532Z,97586.31
2022-08-20T17:33:28.363Z,97593.97
2022-08-20T17:36:33.275Z,97608.00
2022-08-20T17:39:36.250Z,97614.63
2022-08-20T17:42:48.274Z,97618.00
2022-08-20T17:45:51.351Z,97622.53
2022-08-20T17:48:55.788Z,97617.28
2022-08-20T17:52:01.114Z,97621.78
2022-08-20T17:55:04.574Z,97627.03
2022-08-20T17:58:12.572Z,97626.69
2022-08-20T18:01:17.981Z,97629.97
2022-08-20T18:04:20.994Z,97627.50
2022-08-20T18:07:28.414Z,97624.16
2022-08-20T18:10:37.704Z,97639.72
2022-08-20T18:13:54.203Z,97625.78
2022-08-20T18:17:11.377Z,97628.66
2022-08-20T18:20:37.524Z,97624.38
2022-08-20T18:23:47.464Z,97626.47
2022-08-20T18:26:55.036Z,97639.00
2022-08-20T18:30:01.479Z,97636.66
2022-08-20T18:33:09.980Z,97648.47
2022-08-20T18:36:24.516Z,97649.09
2022-08-20T18:39:32.134Z,97637.44
2022-08-20T18:42:37.025Z,97647.75
2022-08-20T18:45:40.036Z,97653.31
2022-08-20T18:48:58.505Z,97669.63
2022-08-20T18:52:11.079Z,97675.69
2022-08-20T18:55:32.482Z,97676.28
2022-08-20T18:58:40.403Z,97680.56
2022-08-20T19:01:43.996Z,97674.66
2022-08-20T19:04:52.834Z,97686.97
2022-08-20T19:08:07.845Z,97688.66
2022-08-20T19:11:29.684Z,97709.84
2022-08-20T19:15:01.044Z,97723.56
2022-08-20T19:18:09.341Z,97734.63
2022-08-20T19:21:15.595Z,97736.25
2022-08-20T19:24:25.646Z,97735.94
2022-08-20T19:27:30.917Z,97735.38
2022-08-20T19:30:37.405Z,97731.00
2022-08-20T19:33:44.035Z,97733.28
2022-08-20T19:36:53.698Z,97737.06
2022-08-20T19:39:58.867Z,97740.78
2022-08-20T19:43:07.723Z,97734.50
2022-08-20T19:46:10.697Z,97746.91
2022-08-20T19:49:21.883Z,97754.78
2022-08-20T19:52:36.178Z,97767.81
2022-08-20T19:55:40.813Z,97778.56
2022-08-20T19:58:46.215Z,97765.63
2022-08-20T20:01:58.940Z,97760.44
2022-08-20T20:05:06.483Z,97757.53
2022-08-20T20:08:12.203Z,97759.34
2022-08-20T20:11:20.384Z,97755.63
2022-08-20T20:14:29.838Z,97748.34
2022-08-20T20:17:35.318Z,97752.88
2022-08-20T20:20:57.285Z,97749.13
2022-08-20T20:24:02.370Z,97743.22
2022-08-20T20:27:13.563Z,97743.88
2022-08-20T20:30:27.173Z,97733.66
2022-08-20T20:33:35.861Z,97743.00
2022-08-20T20:36:41.727Z,97743.16
2022-08-20T20:39:46.891Z,97738.53
2022-08-20T20:42:59.277Z,97743.00
2022-08-20T20:46:08.286Z,97738.66
2022-08-20T20:49:22.789Z,97735.34
2022-08-20T20:52:29.431Z,97728.75
2022-08-20T20:55:35.531Z,97728.00
2022-08-20T20:59:06.776Z,97726.97
2022-08-20T21:02:16.888Z,97729.41
2022-08-20T21:05:22.657Z,97729.41
2022-08-20T21:08:27.716Z,97731.47
2022-08-20T21:11:33.334Z,97723.06
2022-08-20T21:14:37.131Z,97715.06
2022-08-20T21:17:41.632Z,97718.38
2022-08-20T21:20:44.952Z,97728.66
2022-08-20T21:23:47.687Z,97722.09
2022-08-20T21:26:51.906Z,97724.13
2022-08-20T21:29:55.657Z,97727.63
2022-08-20T21:33:00.630Z,97732.50
2022-08-20T21:36:03.712Z,97720.75
2022-08-20T21:39:06.586Z,97716.06
2022-08-20T21:42:18.536Z,97711.38
2022-08-20T21:45:32.328Z,97704.75
2022-08-20T21:48:36.445Z,97703.25
2022-08-20T21:51:47.338Z,97705.47
2022-08-20T21:54:59.896Z,97702.66
2022-08-20T21:58:13.212Z,97694.75
2022-08-20T22:01:28.128Z,97696.75
2022-08-20T22:04:35.492Z,97695.47
2022-08-20T22:07:38.776Z,97686.22
2022-08-20T22:10:51.000Z,97689.03
2022-08-20T22:13:54.041Z,97685.16
2022-08-20T22:16:57.150Z,97686.28
2022-08-20T22:20:02.343Z,97687.84
2022-08-20T22:23:06.540Z,97679.41
2022-08-20T22:26:09.694Z,97677.38
2022-08-20T22:29:13.211Z,97682.00
2022-08-20T22:32:16.215Z,97692.31
2022-08-20T22:35:22.620Z,97692.22
2022-08-20T22:38:26.107Z,97694.72
2022-08-20T22:41:29.294Z,97696.69
2022-08-20T22:44:32.068Z,97703.00
2022-08-20T22:47:35.814Z,97705.72
2022-08-20T22:50:40.730Z,97704.63
2022-08-20T22:53:45.340Z,97698.31
2022-08-20T22:56:48.179Z,97697.03
2022-08-20T22:59:54.669Z,97695.75
2022-08-20T23:02:59.815Z,97689.69
2022-08-20T23:06:04.027Z,97690.91
2022-08-20T23:09:06.906Z,97688.44
2022-08-20T23:12:13.309Z,97681.34
2022-08-20T23:15:33.874Z,97690.53
2022-08-20T23:18:51.700Z,97682.88
2022-08-20T23:22:00.448Z,97686.88
2022-08-20T23:25:03.594Z,97687.94
2022-08-20T23:28:06.371Z,97683.56
2022-08-20T23:31:09.355Z,97682.41
2022-08-20T23:34:12.138Z,97680.75
2022-08-20T23:37:20.012Z,97678.03
2022-08-20T23:40:28.168Z,97669.22
2022-08-20T23:43:31.288Z,97665.97
2022-08-20T23:46:37.414Z,97666.47
2022-08-20T23:49:40.191Z,97672.97
2022-08-20T23:52:44.571Z,97677.53
2022-08-20T23:55:47.416Z,97678.75
2022-08-20T23:58:50.365Z,97679.94
